Logo AVAMET
Benvolgut visitant, si us plau, ingressa Recuperar contrasenya

Inforatge Dénia Santa Llúcia

Dades diàries. Acumulats / Últims 30 dies disponibles

Data Temperatura (°C) Humitat rel. (%) Pressió rel. (hPa) Vent (km/h) Precipitació
Mínima Mitjana Màxima Amplitud
tèrmica
Mínima Mitjana Màxima Mínima Mitjana Màxima Predom. Mitjana Ràfega
màxima
Total
(mm)
Índex-n
Mínima Mitjana Màxima Mínima Mitjana Màxima n
0 a 1
P0 max
mm 5'
Dades mensuals acumulades fins l'últim dia disponible
10/2019 18,8 20,1 21,7 22,9 24,3 26,5 34,5 15,7 26 73 91 1.012 1.020 1.027   3,6 49,9 1,4
Dades anuals acumulades fins l'últim dia disponible
2019 6,4 16,7 26,8 20,0 11,3 24,0 40,7 34,3 14 66 98 998 1.021 1.039   6,1 82,0 654,6
Últims 30 dies disponibles
14-10-2019 20,3     22,0     24,4 4,1 47 82 91 1.014 1.017 1.021 S 4,2 49,9 1,4
13-10-2019 20,8     22,2     24,7 3,9 78 85 89 1.020 1.021 1.022 W 3,5 14,5 0,0
12-10-2019 19,6     22,2     24,3 4,7 79 84 91 1.021 1.022 1.024 W 1,3 12,9 0,0
11-10-2019 19,5     22,1     24,9 5,4 69 79 85 1.023 1.025 1.027 SE 3,2 20,9 0,0
10-10-2019 19,4     22,1     24,8 5,4 69 78 87 1.023 1.025 1.026 SE 2,3 14,5 0,0
09-10-2019 20,4     23,3     27,7 7,3 59 71 79 1.019 1.020 1.023 SE 2,5 25,9 0,0
08-10-2019 18,8     22,5     25,8 7,0 60 69 81 1.020 1.022 1.025 SSE 6,3 46,7 0,0
07-10-2019 20,4     22,4     24,8 4,4 56 73 87 1.019 1.020 1.023 S 3,9 22,6 0,0
06-10-2019 20,7     22,5     25,8 5,1 70 82 87 1.019 1.021 1.023 S 2,6 24,1 0,0
05-10-2019 21,1     22,7     24,9 3,8 59 79 91 1.018 1.019 1.021 SSO 4,5 22,6 0,0
04-10-2019 18,8     24,2     29,6 10,8 43 61 82 1.017 1.020 1.022 S 3,9 32,2 0,0
03-10-2019 19,9     22,1     25,6 5,7 49 58 69 1.019 1.020 1.022 SSE 3,5 20,9 0,0
02-10-2019 21,7     24,3     28,6 6,9 32 51 82 1.014 1.017 1.020 SSO 5,4 29,6 0,0
01-10-2019 20,3     26,2     34,5 14,2 26 66 90 1.012 1.015 1.019 S 3,0 27,8 0,0
30-09-2019 21,2     23,6     30,9 9,7 35 81 90 1.019 1.020 1.022 SSE 2,7 22,6 0,0
29-09-2019 20,1     25,6     32,8 12,7 25 68 91 1.018 1.021 1.023 SE 2,4 31,5 0,0
28-09-2019 21,7     23,7     26,1 4,4 73 84 89 1.022 1.023 1.025 SSO 3,3 20,9 0,0
27-09-2019 20,9     26,0     32,9 12,0 40 67 90 1.019 1.021 1.023 SSE 2,8 29,6 0,0
26-09-2019 20,9     24,1     27,6 6,7 50 76 90 1.020 1.022 1.024 SSO 5,3 40,7 0,0
25-09-2019 22,3     25,9     30,1 7,8 29 61 85 1.017 1.019 1.021 SSO 10,8 42,6 0,0
24-09-2019 20,8     27,1     33,6 12,8 28 50 76 1.017 1.020 1.023 SSO 3,6 27,8 0,0
23-09-2019 21,8     23,8     25,5 3,7 50 63 78 1.020 1.022 1.024 S 5,1 22,6 0,0
22-09-2019 22,4     25,7     30,3 7,9 53 73 91 1.015 1.017 1.019 S 3,3 33,9 0,0
21-09-2019 22,4     24,0     26,5 4,1 67 82 90 1.015 1.017 1.019 SSE 3,7 35,4 0,0
20-09-2019 21,9     23,3     25,2 3,3 80 86 89 1.019 1.021 1.022 SSE 2,8 19,3 0,0
19-09-2019 21,2     23,3     25,9 4,7 64 82 90 1.020 1.021 1.022 S 3,3 18,5 0,0
18-09-2019 21,3     25,0     29,9 8,6 36 67 87 1.018 1.019 1.020 SSE 3,8 20,9 0,0
17-09-2019 20,7     23,8     28,1 7,4 68 82 92 1.018 1.020 1.022 SE 2,3 20,9 0,0
16-09-2019 22,3     23,5     25,0 2,7 81 90 96 1.021 1.022 1.024 SE 4,8 22,6 0,0
15-09-2019 22,7     23,4     24,4 1,7 90 92 95 1.022 1.023 1.026 SE 8,4 29,6 0,0
Últims 13 mesos disponibles
09/2019 13,9 21,1 24,1 24,3 23,3 27,9 34,2 20,3 50 74 92 1.014 1.021 1.027 SSE 5,5 68,5 205,0
08/2019 20,1 23,7 26,8 27,3 26,6 31,9 40,7 20,6 51 69 82 1.014 1.019 1.024 SSE 5,9 63,0 67,8
07/2019 22,5 23,8 26,6 27,2 27,8 31,5 38,7 16,2 44 67 83 1.010 1.018 1.025 SSE 6,5 82,0 2,2
06/2019 14,9 19,1 23,8 23,1 20,8 27,5 37,8 22,9 36 65 85 1.012 1.019 1.025 SSE 7,3 70,9 1,0
05/2019 12,2 15,8 21,8 19,3 18,2 23,8 31,3 19,1 49 66 84 1.009 1.019 1.028 SSE 6,2 68,5 9,4
04/2019 9,7 12,9 16,4 15,6 14,6 18,9 24,6 14,9 47 69 94 1.003 1.016 1.029 SSE 7,7 68,5 322,2
03/2019 8,3 11,7 17,8 15,4 11,9 19,2 27,7 19,4 26 60 91 1.015 1.026 1.034 SSE 5,4 51,9 39,6
02/2019 7,7 9,9 13,6 13,2 12,5 17,1 24,6 16,9 36 63 85 999 1.028 1.037 SSE 5,3 69,3 0,0
01/2019 6,4 9,5 14,2 12,3 11,3 15,6 21,2 14,8 39 60 83 1.007 1.023 1.034 O 6,4 66,7 6,0
12/2018 8,2 11,2 15,3 14,4 13,2 18,2 22,7 14,5 45 68 89 1.012 1.029 1.034 SSE 3,8 66,7 28,8
11/2018 10,8 13,6 16,8 16,1 15,6 18,8 23,4 12,6 44 68 94 1.004 1.019 1.027 OSO 5,6 66,7 91,8
10/2018 9,1 16,4 20,5 19,0 14,0 22,4 28,7 19,6 43 72 89 1.004 1.017 1.029 SSE 5,3 69,3 112,2
09/2018 21,7 22,8 24,1 25,2 26,0 28,2 31,8 10,1 74 80 87 1.016 1.021 1.026 4,3 53,7 20,2
Tots els anys disponibles
Temperatura (°C)
Humitat relativa (%)
Velocitat del vent i ràfega màxima (km/h)
Direcció del vent (°)
Pressió (hPa)
Precipitació (mm)
Nota sobre les dades: s'avisa a l'usuari de la provisionalitat i no oficialitat d'aquestes dades
Logo AVAMET blanc
Web allotjada a Sollutia
Llicència de Creative CommonsLa web d'AVAMET i els seus continguts estan subjectes a una llicència de
Reconeixement - No Comercial - Compartir igual
Últimes estacions: Villena - Villa Ventín (Soci), Benissa - Convent (Soci), Xàbia Fontanella (Soci), Castielfabib (Soci), Sant Mateu (Soci), Vallada (Soci), Agullent (Soci), - - -